Time;durP1;ratioP1;P1;durP2;ratioP2;P2;SDS_P1;SDS_P2;PMS_P1;PMS_P2;Temp;Humidity;BMP_temperature;BMP_pressure;BME280_temperature;BME280_humidity;BME280_pressure;Samples;Min_cycle;Max_cycle;Signal;HPM_P1;HPM_P2
2022/07/08 00:00:42;;;;;;;7.30;1.20;;;14.10;99.90;;;;;;5045713;28;20057;-71
2022/07/08 00:03:08;;;;;;;8.55;1.33;;;14.40;99.90;;;;;;5069191;28;20135;-74
2022/07/08 00:05:34;;;;;;;11.38;1.67;;;15.60;99.90;;;;;;5069421;28;20170;-72
2022/07/08 00:07:59;;;;;;;11.07;1.45;;;14.40;99.90;;;;;;5050326;28;20048;-73
2022/07/08 00:10:28;;;;;;;9.38;1.20;;;14.40;99.90;;;;;;5051289;28;20041;-73
2022/07/08 00:12:56;;;;;;;10.43;1.83;;;14.80;99.90;;;;;;5050455;28;20068;-74
2022/07/08 00:15:22;;;;;;;10.43;1.30;;;14.40;99.90;;;;;;5056562;28;20040;-72
2022/07/08 00:17:48;;;;;;;10.52;1.95;;;14.30;99.90;;;;;;5066811;28;20045;-72
2022/07/08 00:20:13;;;;;;;9.73;1.88;;;15.10;99.90;;;;;;5058805;28;20118;-73
2022/07/08 00:22:39;;;;;;;13.43;1.90;;;14.30;99.90;;;;;;5038038;28;20041;-72
2022/07/08 00:25:05;;;;;;;6.55;1.33;;;15.10;99.90;;;;;;5057062;28;20044;-71
2022/07/08 00:27:31;;;;;;;6.95;1.52;;;14.30;99.90;;;;;;5066587;28;20044;-71
2022/07/08 00:29:57;;;;;;;8.30;1.30;;;14.50;99.90;;;;;;5054455;28;20511;-76
2022/07/08 00:32:23;;;;;;;6.38;1.10;;;14.30;99.90;;;;;;5056663;28;20033;-72
2022/07/08 00:34:49;;;;;;;14.23;2.13;;;14.30;99.90;;;;;;5066345;28;20086;-74
2022/07/08 00:37:14;;;;;;;11.25;1.63;;;14.80;99.90;;;;;;5068289;28;20078;-72
2022/07/08 00:39:40;;;;;;;11.82;1.80;;;14.30;99.90;;;;;;5068114;28;20041;-71
2022/07/08 00:42:06;;;;;;;7.72;1.00;;;14.30;99.90;;;;;;5065374;28;20053;-72
2022/07/08 00:44:32;;;;;;;8.65;1.23;;;14.30;99.90;;;;;;5062697;28;20040;-74
2022/07/08 00:46:58;;;;;;;6.38;1.52;;;15.00;99.90;;;;;;5062227;28;20090;-75
2022/07/08 00:49:24;;;;;;;9.25;1.02;;;14.30;99.90;;;;;;5062102;28;20036;-73
2022/07/08 00:51:50;;;;;;;8.75;1.45;;;14.20;99.90;;;;;;5049003;28;20044;-71
2022/07/08 00:54:18;;;;;;;14.60;2.25;;;14.30;99.90;;;;;;5060890;28;20507;-72
2022/07/08 00:56:44;;;;;;;7.22;1.55;;;14.30;99.90;;;;;;5068016;28;20041;-74
2022/07/08 00:59:10;;;;;;;10.40;1.60;;;14.30;99.90;;;;;;5049517;28;20036;-78
2022/07/08 01:01:36;;;;;;;8.63;1.48;;;14.30;99.90;;;;;;5068073;28;20051;-72
2022/07/08 01:04:03;;;;;;;12.35;1.63;;;14.50;99.90;;;;;;5047346;28;20045;-72
2022/07/08 01:06:28;;;;;;;8.88;1.52;;;14.20;99.90;;;;;;5055386;28;20259;-73
2022/07/08 01:08:54;;;;;;;6.88;1.35;;;14.20;99.90;;;;;;5057295;28;20135;-75
2022/07/08 01:11:21;;;;;;;7.20;1.50;;;14.20;99.90;;;;;;5060208;28;20037;-73
2022/07/08 01:13:47;;;;;;;7.20;1.13;;;14.10;99.90;;;;;;5067621;28;20037;-72
2022/07/08 01:16:13;;;;;;;11.00;1.35;;;14.10;99.90;;;;;;5061855;28;20526;-72
2022/07/08 01:18:41;;;;;;;10.13;1.23;;;14.00;99.90;;;;;;5063823;28;20455;-73
2022/07/08 01:21:07;;;;;;;8.13;1.30;;;14.00;99.90;;;;;;5067189;28;20041;-73
2022/07/08 01:23:32;;;;;;;5.07;1.20;;;14.60;99.90;;;;;;5045614;28;20033;-71
2022/07/08 01:25:59;;;;;;;8.15;1.23;;;15.30;99.90;;;;;;5055754;28;20072;-72
2022/07/08 01:28:26;;;;;;;7.95;0.90;;;15.00;99.90;;;;;;5058583;28;20441;-71
2022/07/08 01:30:51;;;;;;;15.20;1.95;;;13.80;99.90;;;;;;5064034;28;20036;-72
2022/07/08 01:33:18;;;;;;;9.38;1.17;;;13.70;99.90;;;;;;5067487;28;20043;-72
2022/07/08 01:35:44;;;;;;;13.52;1.67;;;13.70;99.90;;;;;;5068049;28;20249;-74
2022/07/08 01:38:10;;;;;;;7.80;1.52;;;12.50;99.90;;;;;;5063495;28;20062;-72
2022/07/08 01:40:36;;;;;;;10.95;1.48;;;13.70;99.90;;;;;;5071110;28;20495;-72
2022/07/08 01:43:02;;;;;;;6.82;1.50;;;13.60;99.90;;;;;;5071147;28;20064;-72
2022/07/08 01:45:30;;;;;;;9.23;1.40;;;13.60;99.90;;;;;;5071683;28;20094;-73
2022/07/08 01:47:55;;;;;;;10.55;1.55;;;13.70;99.90;;;;;;5053405;28;20450;-72
2022/07/08 01:50:21;;;;;;;10.55;1.55;;;13.50;99.90;;;;;;5049914;28;20048;-72
2022/07/08 01:52:47;;;;;;;10.32;1.50;;;13.50;99.90;;;;;;5057461;28;20041;-71
2022/07/08 01:55:12;;;;;;;8.18;1.40;;;13.50;99.90;;;;;;5052830;28;20118;-72
2022/07/08 01:57:38;;;;;;;11.10;2.03;;;13.50;99.90;;;;;;5053518;28;20052;-72
2022/07/08 02:00:05;;;;;;;9.40;1.38;;;13.50;99.90;;;;;;5066641;28;20280;-73
2022/07/08 02:02:31;;;;;;;13.07;2.00;;;13.50;99.90;;;;;;5065485;28;20051;-73
2022/07/08 02:04:57;;;;;;;5.93;1.40;;;14.90;99.90;;;;;;5071293;28;20040;-73
2022/07/08 02:07:23;;;;;;;9.68;1.10;;;13.50;99.90;;;;;;5067062;28;20049;-73
2022/07/08 02:09:48;;;;;;;10.80;1.80;;;13.40;99.90;;;;;;5051146;28;20056;-72
2022/07/08 02:12:20;;;;;;;15.88;1.90;;;13.50;99.90;;;;;;5070884;28;20119;-73
2022/07/08 02:14:49;;;;;;;8.38;0.70;;;13.40;99.90;;;;;;5052244;28;20130;-73
2022/07/08 02:17:17;;;;;;;12.13;1.20;;;13.40;99.90;;;;;;5066918;28;20032;-73
2022/07/08 02:19:42;;;;;;;10.32;1.95;;;13.60;99.90;;;;;;5052630;28;20059;-73
2022/07/08 02:22:09;;;;;;;10.45;1.70;;;13.40;99.90;;;;;;5035552;28;20464;-73
2022/07/08 02:24:36;;;;;;;8.27;1.40;;;14.50;99.90;;;;;;5071795;28;20047;-72
2022/07/08 02:27:02;;;;;;;6.97;1.50;;;13.30;99.90;;;;;;5053036;28;20071;-72
2022/07/08 02:29:28;;;;;;;10.55;1.63;;;13.20;99.90;;;;;;5065383;28;20037;-72
2022/07/08 02:31:53;;;;;;;12.20;1.52;;;13.20;99.90;;;;;;5055778;28;20488;-73
2022/07/08 02:34:19;;;;;;;12.50;1.55;;;13.20;99.90;;;;;;5054717;28;20036;-73
2022/07/08 02:36:45;;;;;;;8.43;1.42;;;13.10;99.90;;;;;;5069754;28;20124;-73
2022/07/08 02:39:12;;;;;;;6.80;1.38;;;13.10;99.90;;;;;;5070639;28;20032;-73
2022/07/08 02:41:42;;;;;;;14.45;1.58;;;14.00;99.90;;;;;;5069838;28;20061;-77
2022/07/08 02:44:08;;;;;;;8.20;1.42;;;13.00;99.90;;;;;;5052372;28;20052;-71
2022/07/08 02:46:37;;;;;;;9.90;1.20;;;13.60;99.90;;;;;;5070689;28;20090;-72
2022/07/08 02:49:03;;;;;;;11.15;1.42;;;13.60;99.90;;;;;;5062087;28;20052;-72
2022/07/08 02:51:29;;;;;;;8.32;1.73;;;13.00;99.90;;;;;;5065389;28;20033;-72
2022/07/08 02:53:55;;;;;;;8.43;1.95;;;12.90;99.90;;;;;;5054083;28;20492;-74
2022/07/08 02:56:21;;;;;;;11.90;2.20;;;13.80;99.90;;;;;;5069502;28;20072;-71
2022/07/08 02:58:46;;;;;;;10.38;1.63;;;12.90;99.90;;;;;;5062912;28;20045;-71
2022/07/08 03:01:12;;;;;;;10.15;1.70;;;12.80;99.90;;;;;;5066614;28;20101;-72
2022/07/08 03:03:38;;;;;;;9.77;1.63;;;12.80;99.90;;;;;;5049515;28;20028;-72
2022/07/08 03:06:04;;;;;;;7.63;1.45;;;12.80;99.90;;;;;;5070501;28;20135;-72
2022/07/08 03:08:29;;;;;;;10.25;1.58;;;11.70;99.90;;;;;;5070202;28;20083;-71
2022/07/08 03:10:55;;;;;;;10.05;1.40;;;12.80;99.90;;;;;;5069019;28;20084;-73
2022/07/08 03:13:21;;;;;;;9.70;2.38;;;12.80;99.90;;;;;;5070484;28;20530;-76
2022/07/08 03:15:46;;;;;;;7.82;1.52;;;12.80;99.90;;;;;;5069504;28;20043;-75
2022/07/08 03:18:12;;;;;;;8.43;1.40;;;12.80;99.90;;;;;;5064075;28;20036;-72
2022/07/08 03:20:38;;;;;;;14.68;2.00;;;12.70;99.90;;;;;;5046240;28;20120;-73
2022/07/08 03:23:03;;;;;;;9.65;1.58;;;12.70;99.90;;;;;;5061999;28;20036;-71
2022/07/08 03:25:29;;;;;;;9.48;1.33;;;12.70;99.90;;;;;;5060764;28;20090;-75
2022/07/08 03:27:56;;;;;;;12.07;1.83;;;12.70;99.90;;;;;;5069506;28;20454;-73
2022/07/08 03:30:22;;;;;;;12.23;2.20;;;12.60;99.90;;;;;;5051661;28;20084;-72
2022/07/08 03:32:53;;;;;;;14.45;1.98;;;12.60;99.90;;;;;;5067759;28;20049;-78
2022/07/08 03:35:19;;;;;;;9.30;1.90;;;12.40;99.90;;;;;;5070632;28;20049;-73
2022/07/08 03:37:47;;;;;;;9.77;1.58;;;12.50;99.90;;;;;;5058273;28;20116;-72
2022/07/08 03:43:03;;;;;;;5.20;1.02;;;12.50;99.90;;;;;;5050523;28;20061;-74
2022/07/08 03:45:29;;;;;;;9.88;1.55;;;12.50;99.90;;;;;;5050824;28;20051;-75
2022/07/08 03:47:56;;;;;;;6.35;1.27;;;12.50;99.90;;;;;;5069211;28;20408;-72
2022/07/08 03:50:22;;;;;;;17.23;2.03;;;12.50;99.90;;;;;;5068642;28;20123;-74
2022/07/08 03:52:47;;;;;;;5.72;1.13;;;12.50;99.90;;;;;;5067796;28;20182;-72
2022/07/08 03:55:14;;;;;;;7.30;1.58;;;12.50;99.90;;;;;;5069150;28;20028;-73
2022/07/08 03:57:40;;;;;;;11.43;1.25;;;12.90;99.90;;;;;;5067877;28;20068;-73
2022/07/08 04:00:07;;;;;;;10.40;1.80;;;12.50;99.90;;;;;;5049413;28;20078;-73
2022/07/08 04:02:34;;;;;;;14.20;1.80;;;12.40;99.90;;;;;;5068626;28;20060;-72
2022/07/08 04:05:00;;;;;;;9.38;2.47;;;13.40;99.90;;;;;;5068097;28;20515;-77
2022/07/08 04:07:26;;;;;;;8.35;2.08;;;12.40;99.90;;;;;;5068329;28;20396;-73
2022/07/08 04:09:52;;;;;;;8.27;1.85;;;12.50;99.90;;;;;;5068231;28;20040;-78
2022/07/08 04:12:17;;;;;;;6.28;1.77;;;12.50;99.90;;;;;;5068318;28;20445;-74
2022/07/08 04:14:43;;;;;;;6.93;1.65;;;13.50;99.90;;;;;;5043694;28;20455;-75
2022/07/08 04:17:09;;;;;;;11.85;1.90;;;12.50;99.90;;;;;;5066371;28;20043;-77
2022/07/08 04:19:34;;;;;;;7.78;1.48;;;12.60;99.90;;;;;;5064142;28;20037;-76
2022/07/08 04:22:00;;;;;;;15.07;2.10;;;12.60;99.90;;;;;;5055698;28;20473;-74
2022/07/08 04:24:31;;;;;;;12.88;1.90;;;12.60;99.90;;;;;;5058657;28;20476;-75
2022/07/08 04:26:57;;;;;;;8.55;1.88;;;12.70;99.90;;;;;;5066910;28;20489;-75
2022/07/08 04:29:22;;;;;;;15.02;1.75;;;12.70;99.90;;;;;;5067193;28;20036;-73
2022/07/08 04:31:48;;;;;;;12.70;2.08;;;13.20;99.90;;;;;;5050762;28;20079;-71
2022/07/08 04:34:14;;;;;;;8.82;1.40;;;12.20;99.90;;;;;;5068712;28;20068;-72
2022/07/08 04:36:42;;;;;;;10.32;1.58;;;12.80;99.90;;;;;;5067879;28;20036;-72
2022/07/08 04:39:08;;;;;;;13.95;1.63;;;12.70;99.90;;;;;;5051318;28;20048;-72
2022/07/08 04:41:34;;;;;;;7.88;1.73;;;12.80;99.90;;;;;;5022148;28;1078245;-75
2022/07/08 04:43:59;;;;;;;8.77;1.35;;;12.90;99.90;;;;;;5060701;28;20178;-71
2022/07/08 04:46:25;;;;;;;8.98;1.25;;;12.90;99.90;;;;;;5062383;28;20052;-73
2022/07/08 04:48:51;;;;;;;10.73;1.73;;;13.00;99.90;;;;;;5055356;28;20040;-71
2022/07/08 04:51:18;;;;;;;8.65;1.13;;;13.00;99.90;;;;;;5068963;28;20037;-72
2022/07/08 04:53:44;;;;;;;9.48;2.20;;;14.20;99.90;;;;;;5068494;28;20123;-72
2022/07/08 04:56:10;;;;;;;11.80;1.77;;;13.10;99.90;;;;;;5059888;28;20124;-74
2022/07/08 04:58:35;;;;;;;4.95;1.40;;;13.20;99.90;;;;;;5068687;28;20037;-70
2022/07/08 05:01:01;;;;;;;12.50;2.63;;;14.50;99.90;;;;;;5055907;28;20138;-74
2022/07/08 05:03:27;;;;;;;12.15;2.50;;;13.70;99.90;;;;;;5048558;28;20052;-73
2022/07/08 05:05:55;;;;;;;8.27;1.83;;;13.90;99.90;;;;;;5068452;28;20120;-70
2022/07/08 05:08:21;;;;;;;9.15;1.70;;;14.40;99.90;;;;;;5063537;28;20119;-72
2022/07/08 05:10:50;;;;;;;8.10;1.60;;;13.30;99.90;;;;;;5066787;28;20312;-73
2022/07/08 05:13:16;;;;;;;11.40;1.67;;;13.30;99.90;;;;;;5060413;28;20036;-72
2022/07/08 05:15:41;;;;;;;11.63;1.52;;;13.40;99.90;;;;;;5068409;28;20131;-72
2022/07/08 05:18:19;;;;;;;10.13;1.65;;;13.40;99.90;;;;;;5068763;28;20036;-74
2022/07/08 05:21:20;;;;;;;;;;;;;;;;;;;;;
2022/07/08 05:23:46;;;;;;;9.77;1.92;;;14.30;99.90;;;;;;5043535;28;20041;-71
2022/07/08 05:26:12;;;;;;;17.15;1.88;;;14.50;99.90;;;;;;5062083;28;20395;-71
2022/07/08 05:28:37;;;;;;;12.90;1.90;;;13.50;99.90;;;;;;5026232;28;20045;-71
2022/07/08 05:31:03;;;;;;;11.57;2.53;;;14.50;99.90;;;;;;5049888;28;20041;-73
2022/07/08 05:33:29;;;;;;;15.10;1.77;;;13.60;99.90;;;;;;5039185;28;20063;-71
2022/07/08 05:35:54;;;;;;;19.40;2.80;;;14.00;99.90;;;;;;5057673;28;20110;-71
2022/07/08 05:38:20;;;;;;;10.98;2.63;;;13.70;99.90;;;;;;5047550;28;20055;-71
2022/07/08 05:40:46;;;;;;;15.02;2.20;;;13.80;99.90;;;;;;5062610;28;20069;-72
2022/07/08 05:43:14;;;;;;;18.45;2.95;;;14.90;99.90;;;;;;5058412;28;20100;-71
2022/07/08 05:45:40;;;;;;;8.55;2.10;;;13.90;99.90;;;;;;5063328;28;20116;-72
2022/07/08 05:48:05;;;;;;;8.02;1.65;;;14.00;99.90;;;;;;5063761;28;20132;-72
2022/07/08 05:50:31;;;;;;;11.18;3.70;;;14.00;99.90;;;;;;5067991;28;20051;-71
2022/07/08 05:52:57;;;;;;;10.50;3.10;;;14.10;99.90;;;;;;5042657;28;20052;-72
2022/07/08 05:55:22;;;;;;;16.88;2.47;;;14.20;99.90;;;;;;5067794;28;20522;-71
2022/07/08 05:57:48;;;;;;;9.50;2.13;;;15.30;99.90;;;;;;5049867;28;20082;-72
2022/07/08 06:00:14;;;;;;;13.45;2.00;;;14.30;99.90;;;;;;5049359;28;20472;-73
2022/07/08 06:02:40;;;;;;;9.38;1.92;;;14.40;99.90;;;;;;5067930;28;20446;-71
2022/07/08 06:05:06;;;;;;;12.20;2.03;;;14.50;99.90;;;;;;5066822;28;20253;-71
2022/07/08 06:07:33;;;;;;;13.80;2.10;;;14.60;99.90;;;;;;5049238;28;20548;-73
2022/07/08 06:10:00;;;;;;;9.13;2.42;;;14.70;99.90;;;;;;5067401;28;20090;-72
2022/07/08 06:12:25;;;;;;;16.83;3.35;;;15.90;99.90;;;;;;5068987;28;20045;-72
2022/07/08 06:14:51;;;;;;;8.25;1.95;;;16.20;99.90;;;;;;5056114;28;20036;-73
2022/07/08 06:17:17;;;;;;;13.43;2.13;;;15.50;99.90;;;;;;5065157;28;20036;-74
2022/07/08 06:19:43;;;;;;;14.35;2.38;;;15.00;99.90;;;;;;5048644;28;20043;-76
2022/07/08 06:22:09;;;;;;;10.80;1.70;;;15.20;99.90;;;;;;5014235;28;20076;-71
2022/07/08 06:24:34;;;;;;;13.43;2.33;;;15.20;99.90;;;;;;5072539;28;20036;-76
2022/07/08 06:27:00;;;;;;;10.35;1.92;;;15.90;99.90;;;;;;5052654;28;20058;-71
2022/07/08 06:29:26;;;;;;;8.32;2.08;;;15.20;99.90;;;;;;5070355;28;20036;-72
2022/07/08 06:31:52;;;;;;;9.55;2.25;;;15.30;99.90;;;;;;5070890;28;20032;-72
2022/07/08 06:34:18;;;;;;;9.88;2.30;;;15.30;99.90;;;;;;5047576;28;20043;-73
2022/07/08 06:36:43;;;;;;;14.32;7.38;;;15.40;99.90;;;;;;5070742;28;20444;-72
2022/07/08 06:39:09;;;;;;;15.20;2.42;;;15.40;99.90;;;;;;5052995;28;20043;-74
2022/07/08 06:41:35;;;;;;;13.48;2.42;;;15.30;99.90;;;;;;5069708;28;20057;-71
2022/07/08 06:44:01;;;;;;;13.32;2.10;;;15.50;99.90;;;;;;5071257;28;20040;-74
2022/07/08 06:46:26;;;;;;;10.90;2.05;;;16.10;99.90;;;;;;5062797;28;20395;-72
2022/07/08 06:48:52;;;;;;;10.85;1.63;;;16.50;99.90;;;;;;5069481;28;20043;-71
2022/07/08 06:51:18;;;;;;;11.63;1.83;;;15.60;99.90;;;;;;5070556;28;20041;-72
2022/07/08 06:56:28;;;;;;;13.57;2.28;;;15.90;99.90;;;;;;5059979;28;20457;-71
2022/07/08 06:58:53;;;;;;;14.27;2.30;;;15.70;99.90;;;;;;5070105;28;20056;-71
2022/07/08 07:01:19;;;;;;;11.82;2.45;;;15.80;99.90;;;;;;5070406;28;20603;-72
2022/07/08 07:03:44;;;;;;;11.18;1.80;;;15.80;99.90;;;;;;5059447;28;20115;-74
2022/07/08 07:06:10;;;;;;;19.02;1.85;;;15.90;99.90;;;;;;5061349;28;20357;-74
2022/07/08 07:08:36;;;;;;;9.63;1.83;;;17.10;99.90;;;;;;5050728;28;20036;-75
2022/07/08 07:11:01;;;;;;;16.60;1.73;;;16.10;99.90;;;;;;5068059;28;20377;-75
2022/07/08 07:13:27;;;;;;;7.20;1.30;;;16.10;99.90;;;;;;5069737;28;20079;-74
2022/07/08 07:15:53;;;;;;;16.35;2.70;;;16.40;99.90;;;;;;5064572;28;20040;-74
2022/07/08 07:18:19;;;;;;;15.48;2.28;;;17.30;99.90;;;;;;5069305;28;20072;-74
2022/07/08 07:20:44;;;;;;;8.75;1.88;;;17.30;99.90;;;;;;5063126;28;20090;-74
2022/07/08 07:23:10;;;;;;;8.50;2.13;;;16.40;99.90;;;;;;5051605;28;20044;-74
2022/07/08 07:25:36;;;;;;;16.42;2.55;;;17.30;99.90;;;;;;5065423;28;20071;-74
2022/07/08 07:28:01;;;;;;;9.00;1.98;;;16.60;99.90;;;;;;5065090;28;20040;-74
2022/07/08 07:30:27;;;;;;;11.77;2.15;;;16.60;99.90;;;;;;5065739;28;20083;-74
2022/07/08 07:32:53;;;;;;;9.18;1.85;;;16.70;99.90;;;;;;5061873;28;20482;-74
2022/07/08 07:35:19;;;;;;;13.63;1.77;;;16.90;99.90;;;;;;5070332;28;20047;-74
2022/07/08 07:37:44;;;;;;;8.93;2.22;;;16.80;99.90;;;;;;5065392;28;20694;-72
2022/07/08 07:40:10;;;;;;;10.23;2.17;;;17.60;99.90;;;;;;5068362;28;20079;-75
2022/07/08 07:42:37;;;;;;;7.57;1.55;;;16.90;99.90;;;;;;5066191;28;20396;-75
2022/07/08 07:45:03;;;;;;;4.85;1.30;;;16.40;99.90;;;;;;5068551;28;20052;-75
2022/07/08 07:47:29;;;;;;;8.05;1.45;;;17.00;99.90;;;;;;5069688;28;20056;-77
2022/07/08 07:49:55;;;;;;;7.97;1.52;;;17.00;99.90;;;;;;5063819;28;20435;-78
2022/07/08 07:52:23;;;;;;;13.52;1.65;;;17.00;99.90;;;;;;5066610;28;20047;-76
2022/07/08 07:54:49;;;;;;;12.93;2.00;;;17.70;99.90;;;;;;5060867;28;20392;-75
2022/07/08 07:57:15;;;;;;;10.05;1.77;;;17.90;99.90;;;;;;5064946;28;20048;-74
2022/07/08 07:59:41;;;;;;;11.68;1.98;;;17.10;99.90;;;;;;5066631;28;20040;-76
2022/07/08 08:02:08;;;;;;;12.30;2.22;;;17.20;99.90;;;;;;5064697;28;20447;-75
2022/07/08 08:04:33;;;;;;;9.25;1.90;;;17.30;99.90;;;;;;5062261;28;20379;-77
2022/07/08 08:07:00;;;;;;;10.95;2.40;;;18.00;99.90;;;;;;5049575;28;20044;-76
2022/07/08 08:09:26;;;;;;;10.13;2.00;;;18.10;99.90;;;;;;5062173;28;20120;-73
2022/07/08 08:11:52;;;;;;;4.38;1.42;;;18.40;99.90;;;;;;5056807;28;20103;-69
2022/07/08 08:14:18;;;;;;;7.97;1.55;;;17.50;99.90;;;;;;5052825;28;20064;-73
2022/07/08 08:16:44;;;;;;;11.93;2.03;;;17.60;99.90;;;;;;5065934;28;20124;-72
2022/07/08 08:19:10;;;;;;;12.38;1.45;;;17.60;99.90;;;;;;5058934;28;20037;-72
2022/07/08 08:21:36;;;;;;;8.95;1.42;;;17.70;99.90;;;;;;5059742;28;20049;-73
2022/07/08 08:24:03;;;;;;;8.40;1.88;;;17.70;99.90;;;;;;5065609;28;20091;-74
2022/07/08 08:26:29;;;;;;;6.03;1.33;;;17.70;99.90;;;;;;5066820;28;20102;-81
2022/07/08 08:28:55;;;;;;;5.93;1.42;;;17.80;99.90;;;;;;5066073;28;20510;-75
2022/07/08 08:31:23;;;;;;;9.48;1.45;;;17.70;99.90;;;;;;5059971;28;20046;-80
2022/07/08 08:33:51;;;;;;;11.35;1.58;;;17.80;99.90;;;;;;5066863;28;20044;-75
2022/07/08 08:36:17;;;;;;;12.68;2.25;;;17.90;99.90;;;;;;5062840;28;20120;-73
2022/07/08 08:38:46;;;;;;;8.07;1.73;;;17.80;99.90;;;;;;5046249;28;20119;-72
2022/07/08 08:41:12;;;;;;;16.55;1.80;;;17.80;99.90;;;;;;5045283;28;20041;-77
2022/07/08 08:43:38;;;;;;;513.63;76.97;;;17.80;99.90;;;;;;5059642;28;20992;-74
2022/07/08 08:46:05;;;;;;;5.60;1.85;;;17.90;99.90;;;;;;5070877;28;20753;-73
2022/07/08 08:48:38;;;;;;;14.75;2.65;;;17.90;99.90;;;;;;5067760;28;20526;-75
2022/07/08 08:51:07;;;;;;;7.60;1.23;;;17.90;99.90;;;;;;5063031;28;20123;-74
2022/07/08 08:53:44;;;;;;;70.30;10.73;;;17.90;99.90;;;;;;5066589;28;20086;-76
2022/07/08 08:56:15;;;;;;;11.75;2.10;;;17.90;99.90;;;;;;5066170;28;20075;-73
2022/07/08 08:58:46;;;;;;;411.30;53.83;;;17.90;99.90;;;;;;5065621;28;20099;-79
2022/07/08 09:01:14;;;;;;;252.15;33.33;;;18.00;99.90;;;;;;5047949;28;20113;-78
2022/07/08 09:03:43;;;;;;;303.65;41.08;;;18.10;99.90;;;;;;5065998;28;20238;-78
2022/07/08 09:06:09;;;;;;;125.75;24.40;;;18.20;99.90;;;;;;5043770;28;20166;-78
2022/07/08 09:08:36;;;;;;;48.85;6.43;;;18.30;99.90;;;;;;5048962;28;20119;-77
2022/07/08 09:11:02;;;;;;;44.13;7.47;;;19.00;99.90;;;;;;5061474;28;20049;-72
2022/07/08 09:13:28;;;;;;;42.50;4.13;;;18.40;99.90;;;;;;5065920;28;20037;-76
2022/07/08 09:15:59;;;;;;;7.18;1.35;;;18.40;99.90;;;;;;5046399;28;20045;-75
2022/07/08 09:18:30;;;;;;;5.55;1.05;;;19.40;99.90;;;;;;5064050;28;20068;-72
2022/07/08 09:20:58;;;;;;;74.95;10.88;;;18.40;99.90;;;;;;5046204;28;20056;-73
2022/07/08 09:23:29;;;;;;;9.80;1.35;;;18.90;99.90;;;;;;5066203;28;20237;-72
2022/07/08 09:25:59;;;;;;;7.03;1.40;;;18.30;99.90;;;;;;5048166;28;20053;-73
2022/07/08 09:28:36;;;;;;;5.72;1.10;;;18.30;99.90;;;;;;5063373;28;20040;-72
2022/07/08 09:31:05;;;;;;;10.00;1.83;;;18.40;99.90;;;;;;5063792;28;20044;-72
2022/07/08 09:33:31;;;;;;;8.52;1.67;;;18.40;99.90;;;;;;5068402;28;20044;-72
2022/07/08 09:36:01;;;;;;;8.00;1.42;;;18.50;99.90;;;;;;5062541;28;20063;-74
2022/07/08 09:38:28;;;;;;;7.72;1.60;;;18.40;99.90;;;;;;5061641;28;20049;-75
2022/07/08 09:40:56;;;;;;;10.43;1.77;;;18.50;99.90;;;;;;5065009;28;20125;-79
2022/07/08 09:43:23;;;;;;;9.68;1.30;;;18.60;99.90;;;;;;5064296;28;20088;-80
2022/07/08 09:45:51;;;;;;;8.10;1.50;;;18.60;99.90;;;;;;5047083;28;20036;-72
2022/07/08 09:48:20;;;;;;;7.30;1.35;;;18.70;99.90;;;;;;5065514;28;20109;-79
2022/07/08 09:50:48;;;;;;;453.15;53.33;;;18.60;99.90;;;;;;5063491;28;20859;-77
2022/07/08 09:53:22;;;;;;;72.95;8.02;;;18.70;99.90;;;;;;5060796;28;20628;-72
2022/07/08 09:55:52;;;;;;;38.63;4.50;;;18.70;99.90;;;;;;5060163;28;20036;-78
2022/07/08 09:58:23;;;;;;;60.35;7.03;;;19.60;99.90;;;;;;5071306;28;20044;-81
2022/07/08 10:00:53;;;;;;;40.17;5.53;;;18.70;99.90;;;;;;5053559;28;20041;-78
2022/07/08 10:03:21;;;;;;;12.60;3.22;;;19.20;99.90;;;;;;5051827;28;20056;-81
2022/07/08 10:05:47;;;;;;;10.15;2.10;;;18.80;99.90;;;;;;5068231;28;20192;-74
2022/07/08 10:08:14;;;;;;;41.08;3.70;;;19.70;99.90;;;;;;5053229;28;20052;-78
2022/07/08 10:10:42;;;;;;;7.20;1.40;;;18.80;99.90;;;;;;5052575;28;20391;-76
2022/07/08 10:13:08;;;;;;;20.10;2.53;;;18.90;99.90;;;;;;5053402;28;20052;-79
2022/07/08 10:15:36;;;;;;;13.98;1.90;;;20.00;99.90;;;;;;5070338;28;20037;-85
2022/07/08 10:18:22;;;;;;;5.18;1.42;;;18.90;99.90;;;;;;5061724;28;20056;-77
2022/07/08 10:20:52;;;;;;;11.50;1.88;;;19.00;99.90;;;;;;5050199;28;20036;-74
2022/07/08 10:23:45;;;;;;;12.32;2.15;;;19.00;99.90;;;;;;5053509;28;20051;-72
2022/07/08 10:26:11;;;;;;;4.50;1.20;;;19.00;99.90;;;;;;5045970;28;20045;-73
2022/07/08 10:28:42;;;;;;;6.28;1.27;;;19.00;99.90;;;;;;5058793;28;20045;-72
2022/07/08 10:31:21;;;;;;;4.80;1.73;;;19.30;99.90;;;;;;5069428;28;20040;-75
2022/07/08 10:33:47;;;;;;;101.05;7.45;;;19.10;99.90;;;;;;5066330;28;20044;-80
2022/07/08 10:36:13;;;;;;;27.92;3.00;;;19.10;99.90;;;;;;5067234;28;20369;-77
2022/07/08 10:38:45;;;;;;;5.55;1.20;;;19.10;99.90;;;;;;5069648;28;20036;-75
2022/07/08 10:41:19;;;;;;;5.93;1.40;;;20.00;99.90;;;;;;5064700;28;20047;-85
2022/07/08 10:43:53;;;;;;;6.32;1.35;;;19.10;99.90;;;;;;5063753;28;20056;-81
2022/07/08 10:46:24;;;;;;;6.75;1.50;;;19.10;99.90;;;;;;5064091;28;20037;-81
2022/07/08 10:48:51;;;;;;;9.85;1.65;;;19.10;99.90;;;;;;5070526;28;20385;-85
2022/07/08 10:51:29;;;;;;;4.80;1.20;;;19.20;99.90;;;;;;5063933;28;20415;-82
2022/07/08 10:54:00;;;;;;;6.93;1.38;;;19.20;99.90;;;;;;5070254;28;20048;-81
2022/07/08 10:56:56;;;;;;;7.25;1.40;;;19.90;99.90;;;;;;4749618;28;10001209;-82
2022/07/08 10:59:27;;;;;;;9.80;1.35;;;19.30;99.90;;;;;;5041799;28;20240;-82
2022/07/08 11:02:06;;;;;;;5.55;1.73;;;19.40;99.90;;;;;;5068855;28;20040;-85
2022/07/08 11:04:34;;;;;;;7.40;1.45;;;19.50;99.90;;;;;;5068358;28;20033;-82
2022/07/08 11:07:29;;;;;;;6.43;1.52;;;19.70;99.90;;;;;;5054021;28;20438;-82
2022/07/08 11:10:07;;;;;;;6.38;1.08;;;19.60;99.90;;;;;;5068168;28;20080;-83
2022/07/08 11:12:54;;;;;;;8.48;1.63;;;19.70;99.90;;;;;;5070145;28;20032;-79
2022/07/08 11:15:21;;;;;;;9.00;1.80;;;19.70;99.90;;;;;;5065510;28;20045;-80
2022/07/08 11:17:48;;;;;;;11.98;1.67;;;19.80;99.90;;;;;;5068948;28;20090;-85
2022/07/08 11:20:16;;;;;;;6.55;1.52;;;19.90;99.90;;;;;;5067572;28;20151;-84
2022/07/08 11:22:44;;;;;;;10.68;2.03;;;20.00;99.90;;;;;;5066561;28;20428;-80
2022/07/08 11:25:13;;;;;;;8.13;1.30;;;20.20;99.90;;;;;;5035225;28;20047;-81
2022/07/08 11:27:40;;;;;;;6.75;1.40;;;20.20;99.90;;;;;;5033895;28;20078;-83
2022/07/08 11:30:11;;;;;;;8.95;1.80;;;20.30;99.90;;;;;;5046580;28;20072;-82
2022/07/08 11:32:39;;;;;;;6.90;1.40;;;20.50;99.90;;;;;;5027065;28;20118;-85
2022/07/08 11:35:06;;;;;;;4.68;1.42;;;20.60;99.90;;;;;;5067197;28;20039;-84
2022/07/08 11:37:38;;;;;;;6.22;1.50;;;20.40;99.90;;;;;;5070830;28;20068;-85
2022/07/08 11:40:04;;;;;;;10.82;1.63;;;20.40;99.90;;;;;;5062542;28;20699;-84
2022/07/08 11:42:35;;;;;;;7.13;1.85;;;20.40;99.90;;;;;;5059984;28;20098;-83
2022/07/08 11:45:04;;;;;;;8.57;1.85;;;20.60;99.90;;;;;;5053559;28;20496;-84
2022/07/08 11:47:30;;;;;;;9.52;2.30;;;20.70;99.90;;;;;;5047380;28;20051;-89
2022/07/08 11:49:57;;;;;;;8.45;2.10;;;20.80;99.90;;;;;;5063316;28;20434;-88
2022/07/08 11:52:23;;;;;;;7.72;1.98;;;20.90;99.90;;;;;;5067970;28;20029;-84
2022/07/08 11:54:49;;;;;;;8.43;2.38;;;20.90;99.90;;;;;;5081024;28;20532;-81
2022/07/08 11:57:16;;;;;;;12.70;2.38;;;21.10;99.90;;;;;;5051608;28;20041;-84
2022/07/08 11:59:44;;;;;;;9.63;2.35;;;21.00;99.90;;;;;;5067789;28;20063;-77
2022/07/08 12:02:11;;;;;;;10.52;2.50;;;22.00;99.90;;;;;;5051265;28;20080;-77
2022/07/08 12:04:37;;;;;;;5.45;1.88;;;22.00;99.90;;;;;;5063803;28;20589;-76
2022/07/08 12:07:19;;;;;;;9.88;2.47;;;21.90;99.90;;;;;;5058895;28;20262;-82
2022/07/08 12:09:55;;;;;;;7.72;1.88;;;21.40;99.90;;;;;;5052469;28;20076;-85
2022/07/08 12:12:22;;;;;;;5.88;2.40;;;21.50;99.90;;;;;;5065102;28;20364;-81
2022/07/08 12:14:50;;;;;;;8.35;2.50;;;22.30;99.90;;;;;;5058127;28;20045;-82
2022/07/08 12:17:27;;;;;;;12.48;2.95;;;21.60;99.90;;;;;;5058837;28;20048;-85
2022/07/08 12:19:54;;;;;;;9.75;2.15;;;21.70;99.90;;;;;;5059446;28;20180;-81
2022/07/08 12:22:47;;;;;;;10.98;2.10;;;21.60;99.90;;;;;;5066861;28;20037;-79
2022/07/08 12:25:15;;;;;;;5.88;2.35;;;21.60;99.90;;;;;;5054674;28;20420;-82
2022/07/08 12:27:41;;;;;;;7.97;2.17;;;21.50;99.90;;;;;;5063763;28;20052;-76
2022/07/08 12:30:08;;;;;;;7.93;2.50;;;21.80;99.90;;;;;;5065712;28;20087;-75
2022/07/08 12:32:45;;;;;;;7.25;1.95;;;21.50;99.90;;;;;;5068229;28;20062;-78
2022/07/08 12:35:12;;;;;;;8.32;2.00;;;21.70;99.90;;;;;;5040706;28;20547;-80
2022/07/08 12:37:39;;;;;;;5.38;1.80;;;21.90;99.90;;;;;;5067461;28;20072;-79
2022/07/08 12:40:16;;;;;;;7.72;1.80;;;22.10;99.90;;;;;;5058606;28;20044;-81
2022/07/08 12:42:42;;;;;;;12.40;2.13;;;22.10;99.90;;;;;;5056741;28;20049;-84
2022/07/08 12:45:14;;;;;;;8.93;2.55;;;22.10;99.90;;;;;;5051528;28;20106;-76
2022/07/08 12:47:41;;;;;;;6.57;1.67;;;22.20;99.90;;;;;;5069006;28;20505;-72
2022/07/08 12:50:07;;;;;;;8.98;2.17;;;22.10;99.90;;;;;;5077537;28;20036;-78